la Serge Lapébie

 

 

Gén. Dossard Nom Prenom Temps Categorie Cl_Cat Ecart 1er ...
1 1473 TORRES FRANCOIS 03:19:00.67 C 1 00:00:00 UNION CYCLISME VELOCIPEDIQUE
2 1360 COUTINHO AUGUSTE 03:19:02.70 C 2 00:00:02 LUCHON LOURON CYCLISME
3 1482 CARRERE CHRISTOPHE 03:20:02.31 B 1 00:01:02 GOURDAN POLIGNAR
4 1364 DIMNET THOMAS 03:20:03.84 A 1 00:01:03 EC MONTESQUIEU
5 1217 BARBARESCO REMI 03:20:37.57 B 2 00:01:37 AUCUN
6 1293 CLERMONT CHRISTOPHE 03:21:14.52 B 3 00:02:14 VCRO
7 1498 SALOMON MARCEL 03:21:24.25 E 1 00:02:24 LES MOLLETS FUTTES NAVARRENX
8 1335 BAILE JEAN PAUL 03:24:05.00 C 3 00:05:05 UCA ARCACHON
9 1459 CHIPON BENJAMIN 03:25:03.79 A 2 00:06:03 ANDOUARD
10 1458 ANDOUARD PHILIPPE 03:26:48.34 D 1 00:07:48 TEAM ANDOUARD
11 1442 ZUERAS DANIEL 03:27:29.59 C 4 00:08:29
12 1511 TISSOT HUBERT 03:27:30.32 C 5 00:08:30 BALMA OLYMPIQUE CYCLISME
13 1038 PLANCHOU FABRICE 03:28:01.11 C 6 00:09:01 ASMAT MATRA TOULOUSE
14 1405 ITIER LAURENT 03:28:01.69 B 4 00:09:01 ETOILE CYCLISTE MONTESQUIEU
15 1239 MARTIN NICOLAS 03:28:37.89 A 3 00:09:37 AUCUN
16 1238 CALLAC DE GASPERIS XAVIER 03:29:57.80 B 5 00:10:57 UV AUCH
17 1106 PIERRON RAPHAEL 03:32:00.57 C 7 00:13:00 MURET CYCLISTE
18 1317 BOISSE PASCAL 03:32:14.30 C 8 00:13:14
19 1310 LEMOZY NICOLAS 03:32:16.30 A 4 00:13:16 EC MONTESQUIEU
20 1265 JOUSSERAND SEBASTIEN 03:32:30.35 B 6 00:13:30 ETOILE CYCLISTE DE MONTESQUIEU
21 1431 MARROT PATRICK 03:32:32.46 C 9 00:13:32 TEAM BAROUSSE 65
22 1435 MIQUEL DANIEL 03:32:53.99 D 2 00:13:53 ACF LE FOUSSEROT
23 1427 BAGET HERVE 03:33:45.72 C 10 00:14:45 AVENIR BIZANOS
24 1334 DUBOURDIEU FRANCOIS 03:33:46.15 C 11 00:14:46 FOUSSERET AS CYCLISTE
25 1448 LESSMANN PASCAL 03:34:20.59 C 12 00:15:20 U.V AUCH
26 1485 DAUNES SEBASTIEN 03:35:03.37 B 7 00:16:03 VELO CLUB ROQUETTOIS
27 1100 DELMAS OLIVIER 03:35:04.28 C 13 00:16:04 MURET CYCLISTE
28 1154 BASSOT JONATHAN 03:35:54.14 B 8 00:16:54 LUCHON LOURON CYCLISME
29 1082 CROUZET GASTON 03:39:34.59 D 3 00:20:34 LUCHON LOURON CYCLISME
30 1478 SAJAS PATRICK 03:39:55.47 C 14 00:20:55
31 1172 SALLES GREGORY 03:39:55.47 B 9 00:20:55 CPRS PINS JUSTARET
32 1273 PAVAN MICKAEL 03:41:05.33 A 5 00:22:05 LUCHON LOURON CYCLISME
33 1372 LLORET JEROME 03:41:06.00 B 10 00:22:06
34 1423 BARRERE LAURENT 03:41:35.90 B 11 00:22:35 AS LE FOUSSERET
35 1274 LORMANT PATRICK 03:42:43.81 C 15 00:23:43 ST GO CYCLISME
36 1037 RICCI JEAN BERNARD 03:42:45.71 D 4 00:23:45 ASMAT MATRA TOULOUSE
37 1454 VERGER FREDERIC 03:42:45.86 C 16 00:23:45 UNION
38 1176 SARTORI JEROME 03:43:31.57 B 12 00:24:31 CPRS PINS JUSTARET
39 1018 LIPIN VINCENT 03:43:46.82 C 17 00:24:46 CTE QUARTIER LA RENAUDIE
40 1237 MASSAT JEAN MICHEL 03:44:54.28 D 5 00:25:54 CC CASTANEEN
41 1339 BRETON CHRISTIAN 03:44:55.01 D 6 00:25:55 ETOILE CYCLISTE MONTESQUIEU
42 1362 BROS DAVID 03:44:56.30 B 13 00:25:56 ITZUL TA ZAPA
43 1249 ARFEL NICOLAS 03:45:09.92 B 14 00:26:09 AUCUN
44 1246 PENDERY ANDREW 03:45:23.96 C 18 00:26:23 CL CASTELNAUDARY
45 1199 DANJOU STEPHANE 03:45:34.22 C 19 00:26:34 AUCUN
46 1138 LEGENNE JEROME 03:45:34.47 C 20 00:26:34 CPRS PINS JUSTARET
47 1089 FRANTZ MICHEL 03:46:41.24 C 21 00:27:41 GOURDON CYCLIME
48 1341 SOUNES JOEL 03:47:09.78 C 22 00:28:09 ETOILE CYCLISTE MONTESQUIEU
49 1243 MILLES SEBASTIEN 03:47:55.44 B 15 00:28:55 VC VARILHES
50 1071 CAMUS JEAN MARC 03:47:58.94 D 7 00:28:58 AUCUN
51 1272 FOLLIOT DOMINIQUE 03:48:01.81 C 23 00:29:01 US FRONTON
52 1236 DAYDE DAMIEN 03:48:07.85 B 16 00:29:07 USCAT
53 1401 DA COSTA ERIC 03:48:09.33 C 24 00:29:09 LUCHON LOURON CYCLISME
54 1022 LLORENTE GUY 03:48:09.93 D 8 00:29:09 ALVA CYCLO SPORT
55 1505 MORRELL SAM 03:48:40.76 A 6 00:29:40
56 1083 DUSSAUD MICHEL 03:48:41.09 D 9 00:29:41 CC CARS
57 1291 MASSAT DANIEL 03:48:42.05 C 25 00:29:42
58 1428 DASTUGUE PATRICE 03:49:05.56 C 26 00:30:05 AUCH UVAGG
59 1447 FAURE PATRICK 03:49:13.79 D 10 00:30:13 FONSORBES
60 1516 BEY THOMAS 03:50:00.00 A 7 00:31:00
61 1275 ARRUEBO OLIVIER 03:50:02.28 B 17 00:31:02 ST GO CYCLISME
62 1208 DELMAS VINCENT 03:50:02.45 B 18 00:31:02 AUCUN
63 1496 LAVIELLE DENIS 03:50:06.20 C 27 00:31:06
64 1263 SALLES ERIC 03:50:14.09 B 19 00:31:14 TEAM MARTRAIS
65 1443 MAUGER LIONEL 03:50:17.39 B 20 00:31:17
66 1483 MILHORAT YANNICK 03:50:28.81 B 21 00:31:28 AUCUN
67 1445 FOURCAUD ERIC 03:50:33.94 C 28 00:31:33 CYCLO CLUB TRIAIS
68 1346 RIVA SERGE 03:51:05.64 C 29 00:32:05 CYCLO VTT FLEURANCE
69 1090 COUARRAZE STEPHANE 03:51:07.76 C 30 00:32:07 AS LE FOUSSERET
70 1325 RANCON FRANCOIS 03:51:09.17 C 31 00:32:09
71 1493 AROMATARIO CHRISTOPHE 03:51:11.50 C 32 00:32:11 CERCLE CYCLO LUSSAN
72 1389 BOUBE FRANCIS 03:51:26.95 D 11 00:32:26 AC DU FOUSSERET
73 1403 LE LAMER THIERRY 03:51:45.11 C 33 00:32:45 ST NAUPHARY VELO SPORT
74 1393 PADOVAN TONY 03:52:37.60 A 8 00:33:37 TEAM GSO
75 1425 LACROIX LUDOVIC 03:52:39.79 B 22 00:33:39
76 1184 BENAREAU IGNAKI 03:52:47.20 C 34 00:33:47 CC LE BOULOU
77 1226 MARTY PHILIPPE 03:52:51.43 C 35 00:33:51 AVENIR DE BIZANOS
78 1220 BOUBEE STEVE 03:52:55.26 B 23 00:33:55 AUCUN
79 1196 PICHAREU JEAN PAUL 03:53:01.71 C 36 00:34:01 MURET CYCLISTE
80 1329 HEBRARD MICHEL 03:53:05.24 E 2 00:34:05 PINJAGUEL CYCLO CLUB
81 1504 ESQUERRE JEAN FRANCOIS 03:53:11.43 B 24 00:34:11
82 1258 TALLON PHILIPPE 03:53:25.63 C 37 00:34:25 PAC
83 1219 CARA OLIVIER 03:53:25.70 B 25 00:34:25 CC PYRENEES
84 1510 MEAD STEPHEN 03:53:59.91 C 38 00:34:59
85 1277 EHRESMANN LAURENT 03:54:00.12 D 12 00:35:00 VELO CLUB ESF
86 1446 DUBOSC CHRISTIAN 03:54:33.95 C 39 00:35:33 AUCUN
87 1028 COLUS JEROME 03:54:37.09 B 26 00:35:37 CPRS PINS JUSTARET
88 1235 OLIVE ANDRE 03:54:37.69 E 3 00:35:37 AC MONTAGNAC
89 1229 LABESQUE F 03:54:38.14 D 13 00:35:38 AUCUN
90 1101 FALBY JEAN LUC 03:54:39.64 C 40 00:35:39 ALVA CYCLO SPORT
91 1400 ENSALBENT CHRISTOPHE 03:54:40.84 C 41 00:35:40 ST NAUPHARY VS
92 1066 ROURA EDOUARD 03:54:40.97 H 1 00:35:40 MURET CYCLISTE
93 1195 PEYROUTON THOMAS 03:55:10.51 A 9 00:36:10 AUCUN
94 1003 MONTASTRUC LUDOVIC 03:55:11.80 B 27 00:36:11 AMICALE CYCLO ESCALQUENS
95 1436 MIALHES OLIVIER 03:55:15.18 C 42 00:36:15 ACF LE FOUSSEROT
96 1371 SALLERES BERNARD 03:55:16.32 C 43 00:36:16
97 1074 BOYER DIDIER 03:55:17.52 D 14 00:36:17 SAGC
98 1404 AIROLOI LAURENT 03:55:48.35 B 28 00:36:48 CC LUSSAM
99 1135 DELZON CLAUDE 03:56:01.73 D 15 00:37:01 GUIDON ROQUENTIN
100 1124 GARROUSTE THIERRY 03:56:02.36 C 44 00:37:02 CASTELNAU CYCLO CLUB
101 1424 VENUTO GERARD 03:56:02.69 D 16 00:37:02
102 1314 DE BORTOLI PATRICE 03:56:04.69 D 17 00:37:04 ASS TESTERINE
103 1359 GICQUEL BRUNO 03:56:43.80 D 18 00:37:43 ASSOCIATION SPORTIVE LASSERRE PRADERE
104 1304 LONGEAUX NICOLAS 03:57:11.62 C 45 00:38:11 MONTREJEAU CYCLOS CLUB
105 1092 ROMERO CLAUDE 03:57:13.38 D 19 00:38:13 ALVA CYCLO SPORT
106 1410 RENAUD LAURENT 03:57:16.14 B 29 00:38:16 ACJAR
107 1330 RAYGOT JEAN PAUL 03:57:21.53 C 46 00:38:21
108 1517 RAMOUSSE ARNAUD 03:57:23.00 B 30 00:38:23
109 1490 NOVAIS FERNANDO 03:57:32.18 C 47 00:38:32
110 1486 LAVIELLE DENIS 03:57:51.77 C 48 00:38:51 BALMA CYCLISME OLYMPIQUE
111 1147 LOPEZ ERIC 03:57:53.12 C 49 00:38:53 CC PYRENEES
112 1349 FERRANDEL GUY 03:58:01.92 E 4 00:39:01 GAILLAC CYCLO SPORT
113 1395 ROSIER JEAN MARC 03:58:22.12 D 20 00:39:22
114 1169 SCHNEIDER JEROME 03:58:22.72 B 31 00:39:22 AUCUN
115 1463 BARTHE FRANCOIS 03:58:25.48 B 32 00:39:25 COC CARBONNE
116 1455 LEGLISE JEAN JACQUES 03:58:27.21 E 5 00:39:27 AUCUN
117 1296 GAVALDA ERIC 03:58:42.69 C 50 00:39:42 VELO SPORT CASTRAIS
118 1198 RENAUD JEAN MARIE 03:58:43.52 C 51 00:39:43 AUCH GERS GASCOGNE
119 1507 CAZENAVE JEAN CLAUDE 03:58:45.44 E 6 00:39:45
120 1402 DELGA DAMIEN 03:59:00.24 B 33 00:40:00 ST NAUPHARY VS
121 1128 BERAUD PASCAL 03:59:03.38 D 21 00:40:03 VC FONSORBAIS
122 1174 PEYRET BENJAMIN 03:59:42.70 A 10 00:40:42 ST GO CYCLISME COMMINGES
123 1146 GACHE PHILIPPE 04:00:33.34 D 22 00:41:33 VC BLAGNAC
124 1159 RAYNAUD NICOLAS 04:00:59.15 B 34 00:41:59 AUCUN
125 1158 ABELLAN GEORGES 04:01:10.72 D 23 00:42:10 CPRS PINS JUSTARET
126 1366 FERNANDEZ NICOLAS 04:01:10.72 B 35 00:42:10 CPRS PINS JUSTARET
127 1102 GOURGEON MIKAEL 04:01:11.56 B 36 00:42:11 CC PUJOLAIS
128 1345 LOUP CHRISTIAN 04:01:13.29 C 52 00:42:13
129 1161 RAYNAUD EMMANUEL 04:01:15.97 A 11 00:42:15 AUCUN
130 1017 PEREIRA FRANCIS 04:01:37.22 C 53 00:42:37 AUCUN
131 1323 LAVEDEZE FABIEN 04:01:40.50 B 37 00:42:40
132 1383 NONY ERIC 04:01:48.15 C 54 00:42:48 BALMA
133 1270 HIPOLITO JOSE 04:01:48.28 E 7 00:42:48 CV MONTASTRUC
134 1340 LESCOURRET STEPHANE 04:01:48.34 D 24 00:42:48
135 1025 GIUSEPPIN MICHEL 04:01:52.06 D 25 00:42:52 VC MONDONVILLE
136 1350 GIEUSSE SERGE 04:02:02.97 C 55 00:43:02 GAILLAC CYCLO SPORT
137 1453 VERGER THIERRY 04:02:04.29 C 56 00:43:04 A.S UNION
138 1036 ARRUFFAT LIONEL 04:02:08.94 B 38 00:43:08 ASMAT MATRA TOULOUSE
139 1377 VIGNES RENAUD 04:02:35.91 B 39 00:43:35 GUIDON BIASSAIS
140 1327 LELOUP NICOLAS 04:02:56.85 A 12 00:43:56 ST GO CYCLISME COMMINGE
141 1413 FOURMEGEAT PATRICK 04:03:29.29 C 57 00:44:29
142 1006 BARRAGAN ADRIAN 04:03:35.49 A 13 00:44:35 CYCLOS TALAUDIERE SORBIERS
143 1484 CANON JACQUES 04:03:36.62 D 26 00:44:36 VCPAU BEARN
144 1309 DUCHEMIN HENRI 04:03:38.08 E 8 00:44:38 AC CORPE
145 1178 LEGUEDOIS PASCAL 04:03:39.00 C 58 00:44:39 TRIATHLON CLUB MONTALBANAIS
146 1303 RUFFIE JEAN 04:04:26.74 D 27 00:45:26 VELO CLUB CUGNAUX
147 1049 LABORDE JEAN 04:04:33.60 D 28 00:45:33 AUCUN
148 1352 ITOIZ JOSEPH 04:04:51.73 E 9 00:45:51 IRIBURUNO AINHARA
149 1412 HERIDE CLEMENT 04:05:25.84 A 14 00:46:25
150 1232 GUILLON PHILIPPE 04:05:27.51 D 29 00:46:27 CPRS PINS JUSTARET
151 1160 PELLIER JEAN OLIVIER 04:05:31.29 C 59 00:46:31 TOULOUSE VC
152 1295 PARENT PAUL 04:05:32.75 D 30 00:46:32 VELO SPORT CASTRAIS
153 1472 LEVEQUE OLVIER 04:05:52.42 B 40 00:46:52 ST GO CYCLISME
154 1343 NESTIER XAVIER 04:06:05.54 A 15 00:47:05
155 1355 GUERINEAUD ALAIN 04:06:09.04 E 10 00:47:09 MERIGNAC VC
156 1354 LETORD CHRISTIAN 04:06:09.04 E 11 00:47:09 US BAZAS
157 1240 SELLES PHILIPPE 04:06:09.73 C 60 00:47:09 AUCUN
158 1181 BAQUE LAURENT 04:06:11.40 B 41 00:47:11 ROUE LIBRE SAMTANAISE
159 1257 PASSEBOSC PATRICK 04:06:15.99 C 61 00:47:15 USCAT
160 1418 BROUSSET FRANCIS 04:06:27.40 D 31 00:47:27 UNION VELOCYCLISME AUCH DE GASCOGNE
161 1367 LAMANDE PATRICK 04:06:32.15 D 32 00:47:32
162 1241 THERON SYLVAIN 04:06:39.49 A 16 00:47:39 TEAM GSO
163 1069 DESPORTES FABRICE 04:06:39.72 A 17 00:47:39 AUCUN
164 1140 BAUBY FRANCOIS 04:06:40.66 D 33 00:47:40 CCV CASTELMAUROU
165 1070 JAMES ROBERT 04:06:41.18 D 34 00:47:41 LUCHON LOURON CYCLISME
166 1416 ROUSSELET MELANIE 04:06:45.16 W1 1 00:47:45 FONT ROMEU CYCLISME
167 1426 BARBE MICHEL 04:07:18.24 B 42 00:48:18 AS L UNION
168 1269 HIPOLITO FREDERIC 04:07:35.61 B 43 00:48:35 CV MONTASTRUC
169 1127 TORRESIN STEPHANE 04:07:37.15 B 44 00:48:37 SP CAZERES
170 1387 ROUDIL CHRISTIAN 04:07:54.03 D 35 00:48:54 U.C LE PASSAGE
171 1145 LUQUE JEAN MICHEL 04:07:54.04 C 62 00:48:54 VC PONT DU CASSE
172 1414 MONNIER SERGE 04:08:04.85 D 36 00:49:04
173 1215 GRANDET ERICK 04:08:05.27 D 37 00:49:05 LES CYCLOS DE TOURNEFEUILLE
174 1471 DIANA THIERRY 04:08:12.16 C 63 00:49:12
175 1207 CUETO FRANCISCO 04:08:42.36 D 38 00:49:42 CC CASTANEEN
176 1002 BERNE LAURENT 04:08:46.40 C 64 00:49:46 CC LUSSAN L'ISLE ARNE
177 1255 BOTTAREL DIDIER 04:08:59.77 C 65 00:49:59 CV MONTASTRUC
178 1406 RIVES SERGE 04:09:15.47 D 39 00:50:15 TOAC
179 1111 FOURMENT GILBERT 04:09:15.79 D 40 00:50:15 AUCUN
180 1342 MUR MICHAEL 04:09:16.64 A 18 00:50:16
181 1276 SABATIER FREDERIC 04:09:20.33 B 45 00:50:20 MONTREJEAU CYCLO CLUB
182 1170 RENAULT THIERRY 04:09:22.59 C 66 00:50:22 VC AUTERIVE
183 1411 LAFONT CHRISTIAN 04:09:35.88 D 41 00:50:35 LUCHON LOURON CYCLISME
184 1438 BRUNENGO JEAN FRANCOIS 04:09:39.69 D 42 00:50:39 CC PYRENEEN
185 1202 COMIN PASCAL 04:09:42.00 C 67 00:50:42 AUCUN
186 1388 BLANC JEAN PHILIPPE 04:10:07.39 E 12 00:51:07
187 1422 CIBAT GUY 04:10:07.56 D 43 00:51:07 AVENIR CYCLISME BAGNERES
188 1356 ARQUE ALAIN 04:10:56.24 B 46 00:51:56 ASSOCIATION SPORTIVE LASSERRE PRADERE
189 1300 PASCAU JOEL 04:10:56.85 A 19 00:51:56
190 1503 MULLARD OLIVIER 04:10:58.18 B 47 00:51:58 AVIRON BAYONNAIS
191 1213 BALTEAU JEAN FRANCOIS 04:10:59.71 C 68 00:51:59 CV MONTASTRUC
192 1052 GRANET FRANCOIS 04:11:03.39 D 44 00:52:03 CERCLE AQUITAIN
193 1222 FERRE YANNICK 04:11:14.92 B 48 00:52:14 MURET CYCLISTE
194 1030 PEGOURIE JEAN MICHEL 04:11:23.77 C 69 00:52:23 ASPTT
195 1005 DALENC LAURENT 04:11:31.43 B 49 00:52:31 VTT CEPET
196 1457 OGER LAURENT 04:11:32.17 B 50 00:52:32
197 1351 ROUQUE YANNICK 04:11:33.76 C 70 00:52:33
198 1502 CAQUERET DANIEL 04:11:33.93 E 13 00:52:33 ANDORAS
199 1044 MORA JEAN MARC 04:12:07.96 D 45 00:53:07 FRJEP
200 1264 MARTY PIERRE YVES 04:12:12.60 C 71 00:53:12 CV MONTASTRUC
201 1487 BOER PATRICE 04:12:41.20 B 51 00:53:41 AUCUN
202 1368 DELMAS HUBERT 04:12:43.88 E 14 00:53:43
203 1429 LACROIX BAPTISTE 04:12:49.14 E 15 00:53:49 ROUE LIBRE
204 1288 BLOT STEPHANE 04:12:51.98 C 72 00:53:51
205 1010 CANTON MICHEL 04:12:57.22 E 16 00:53:57 VS CASTRAIS
206 1201 DE MAGALHAES HENRIQUE 04:12:59.29 C 73 00:53:59 VC MAUVEZIN
207 1056 BOUILLAC PATRICK 04:13:12.65 D 46 00:54:12 SC MONSEGURAIS
208 1180 PARMENTIER DIDIER 04:13:37.88 D 47 00:54:37 VC BRUGIERES
209 1319 TUFFAL CEDRIC 04:13:39.96 B 52 00:54:39 CYCLO DE L ESPERANCE
210 1441 BOUR SEBASTIEN 04:13:55.02 B 53 00:54:55
211 1079 LARROQUE PASCAL 04:13:57.58 D 48 00:54:57 CPRS PINS JUSTARET
212 1059 SAINT LARY JEAN CLAUDE 04:14:30.16 D 49 00:55:30 CC MONTREJEAU
213 1407 CHAUBARD SERGE 04:14:30.44 D 50 00:55:30 MONTREJEAU CC
214 1252 CARIVEN DIDIER 04:14:32.37 D 51 00:55:32 AUCUN
215 1353 FERRARIS JACQUES 04:14:32.60 C 74 00:55:32 CPRS PINS JUSTACET
216 1386 LAMBERT FRANCIS 04:14:32.66
Ajouter un commentaire

Vous utilisez un logiciel de type AdBlock, qui bloque le service de captchas publicitaires utilisé sur ce site. Pour pouvoir envoyer votre message, désactivez Adblock.